This is the latest recevied weather packets stored in our database for station/object KK7MLS-13. If no packets are shown the sender has not sent any weather packets the latest 10 day(s).
| Time | Temp. | Humidity | Pressure | Rain* | Wind** | Luminosity | Snow |
|---|---|---|---|---|---|---|---|
| 1777320594 | 13.33° C | 64% | 1019.2 hPa | 0 mm | - | 173 W/m² | - |
| 1777320292 | 13.33° C | 66% | 1019.2 hPa | 0 mm | - | 219 W/m² | - |
| 1777319988 | 13.33° C | 65% | 1019.1 hPa | 0 mm | - | 286 W/m² | - |
| 1777319686 | 13.33° C | 65% | 1019.1 hPa | 0 mm | - | 298 W/m² | - |
| 1777319382 | 13.33° C | 66% | 1019.1 hPa | 0 mm | - | 201 W/m² | - |
| 1777319079 | 13.33° C | 66% | 1019.3 hPa | 0 mm | - | 277 W/m² | - |
| 1777318777 | 13.89° C | 65% | 1019.5 hPa | 0 mm | - | 267 W/m² | - |
| 1777318472 | 13.89° C | 65% | 1019.1 hPa | 0 mm | - | 296 W/m² | - |
| 1777318169 | 13.89° C | 67% | 1019.2 hPa | 0 mm | - | 256 W/m² | - |
| 1777317866 | 13.89° C | 64% | 1019.2 hPa | 0 mm | - | 233 W/m² | - |
| 1777317564 | 13.33° C | 65% | 1019.1 hPa | 0 mm | - | 285 W/m² | - |
| 1777317260 | 13.33° C | 66% | 1019.4 hPa | 0 mm | - | 269 W/m² | - |
| 1777316956 | 12.78° C | 67% | 1019.4 hPa | 0 mm | - | 262 W/m² | - |
| 1777316654 | 12.78° C | 68% | 1019.4 hPa | 0 mm | - | 270 W/m² | - |
| 1777316350 | 12.22° C | 70% | 1019.4 hPa | 0 mm | - | 251 W/m² | - |
| 1777316047 | 12.22° C | 69% | 1019.4 hPa | 0 mm | - | 211 W/m² | - |
| 1777315746 | 11.67° C | 71% | 1019.3 hPa | 0 mm | - | 161 W/m² | - |
| 1777315443 | 12.22° C | 69% | 1019.5 hPa | 0 mm | - | 178 W/m² | - |
| 1777315141 | 11.67° C | 71% | 1019.1 hPa | 0 mm | - | 144 W/m² | - |
| 1777314836 | 11.67° C | 71% | 1019.2 hPa | 0 mm | - | 161 W/m² | - |
| 1777314533 | 12.22° C | 68% | 1019.3 hPa | 0 mm | - | 186 W/m² | - |
| 1777314229 | 11.67° C | 69% | 1019.3 hPa | 0 mm | - | 193 W/m² | - |
| 1777313928 | 11.67° C | 67% | 1019.2 hPa | 0 mm | - | 207 W/m² | - |
| 1777313625 | 11.67° C | 67% | 1019.1 hPa | 0 mm | - | 211 W/m² | - |
| 1777313323 | 11.67° C | 71% | 1019.4 hPa | 0 mm | - | 216 W/m² | - |
* Rain latest hour (hover to see other rain measurements)
** Current wind speed in m/s (hover to see current wind gust speed)